Latest Weather Observations for Tin Can Bay (Defence)

IDQ60901

Issued at 5:41 pm EST Sunday 15 December 2019 (issued every 10 minutes, with the page automatically refreshed every 10 minutes)

About weather observations | Map of Brisbane area stations | Latest observations for Brisbane area | Other Formats
Station Details ID: 140010 Name: TIN CAN BAY (DEFENCE) Lat: -25.94 Lon: 152.96 Height: 31.26 m
Data from the previous 72 hours. | See also: Recent months at Tin Can Bay (Defence)
Date/Time
EST
Temp
°C
App
Temp
°C
Dew
Point
°C
Rel
Hum
%
Delta-T
°C
Wind Press
QNH
hPa
Press
MSL
hPa
Rain since
9am
mm
Dir  Spd
km/h
Gust
km/h
Spd
kts
Gust
kts
15/05:30pm 28.8 31.2 20.8 62 5.3 NNE 9 20 5 11 - - 0.0
15/05:00pm 28.8 30.6 21.1 63 5.1 NE 13 22 7 12 - - 0.0
15/04:30pm 29.3 30.3 21.0 61 5.5 NE 17 28 9 15 - - 0.0
15/04:00pm 29.8 30.5 21.2 60 5.8 NE 19 28 10 15 - - 0.0
15/03:30pm 30.2 30.8 21.3 59 6.0 NE 20 30 11 16 - - 0.0
15/03:00pm 30.6 31.9 21.7 59 6.0 NE 17 24 9 13 - - 0.0
15/02:30pm 30.1 30.9 20.6 56 6.3 NE 17 26 9 14 - - 0.0
15/02:00pm 30.4 30.7 20.3 54 6.7 NE 19 33 10 18 - - 0.0
15/01:30pm 30.9 31.1 20.5 54 6.9 NE 20 32 11 17 - - 0.0
15/01:00pm 31.0 32.2 20.6 54 6.9 NE 15 28 8 15 - - 0.0
15/12:30pm 30.7 31.2 21.2 57 6.4 NE 20 33 11 18 - - 0.0
15/12:00pm 31.8 33.9 21.0 52 7.2 NNE 11 24 6 13 - - 0.0
15/11:30am 31.9 34.1 21.1 52 7.3 N 11 20 6 11 - - 0.0
15/11:00am 30.7 33.3 21.2 57 6.4 N 9 17 5 9 - - 0.0
15/10:30am 30.7 33.5 21.5 58 6.2 N 9 17 5 9 - - 0.0
15/10:00am 29.8 32.8 21.2 60 5.8 NW 7 13 4 7 - - 0.0
15/09:30am 28.8 31.8 21.3 64 5.0 N 7 17 4 9 - - 0.0
15/09:00am 29.2 32.3 21.4 63 5.2 N 7 13 4 7 - - 0.0
15/08:30am 28.5 31.3 21.5 66 4.7 N 9 15 5 8 - - 0.0
15/08:00am 27.8 29.6 21.1 67 4.5 NW 13 20 7 11 - - 0.0
15/07:30am 26.9 29.6 21.4 72 3.7 NW 9 19 5 10 - - 0.0
15/07:00am 26.3 29.7 21.7 76 3.1 NNW 6 11 3 6 - - 0.0
15/06:30am 24.9 29.3 21.4 81 2.3 CALM 0 4 0 2 - - 0.0
15/06:00am 24.1 28.9 22.2 89 1.3 CALM 0 0 0 0 - - 0.0
15/05:30am 23.5 28.1 21.8 90 1.1 CALM 0 0 0 0 - - 0.0
15/05:00am 23.3 27.1 21.7 91 1.1 WNW 4 4 2 2 - - 0.0
15/04:30am 23.2 27.5 22.0 93 0.8 NW 2 6 1 3 - - 0.0
15/04:00am 22.9 27.6 21.9 94 0.7 CALM 0 0 0 0 - - 0.0
15/03:30am 22.5 27.0 21.5 94 0.7 CALM 0 0 0 0 - - 0.0
15/03:00am 22.7 27.2 21.5 93 0.8 CALM 0 0 0 0 - - 0.0
15/02:30am 22.7 27.1 21.3 92 0.9 CALM 0 0 0 0 - - 0.0
15/02:00am 23.0 27.5 21.6 92 0.9 CALM 0 2 0 1 - - 0.0
15/01:30am 23.1 27.6 21.5 91 1.1 CALM 0 0 0 0 - - 0.0
15/01:00am 23.1 27.5 21.4 90 1.1 CALM 0 0 0 0 - - 0.0
15/12:30am 23.4 28.0 21.7 90 1.1 CALM 0 0 0 0 - - 0.0
15/12:00am 23.5 27.5 21.4 88 1.4 NNE 2 4 1 2 - - 0.0
 
Date/Time
EST
Temp
°C
App
Temp
°C
Dew
Point
°C
Rel
Hum
%
Delta-T
°C
Wind Press
QNH
hPa
Press
MSL
hPa
Rain since
9am
mm
Dir  Spd
km/h
Gust
km/h
Spd
kts
Gust
kts
14/11:30pm 23.9 28.0 21.6 87 1.5 NNE 2 6 1 3 - - 0.0
14/11:00pm 23.8 27.9 21.5 87 1.5 NNE 2 4 1 2 - - 0.0
14/10:30pm 23.9 27.9 21.4 86 1.6 N 2 6 1 3 - - 0.0
14/10:00pm 24.5 28.3 21.6 84 1.9 N 4 9 2 5 - - 0.0
14/09:30pm 24.6 28.6 22.1 86 1.7 N 4 6 2 3 - - 0.0
14/09:00pm 25.0 29.9 22.3 85 1.8 CALM 0 6 0 3 - - 0.0
14/08:30pm 25.2 29.7 22.3 84 1.9 N 2 4 1 2 - - 0.0
14/08:00pm 25.3 29.1 22.4 84 1.9 NNE 6 9 3 5 - - 0.0
14/07:30pm 25.2 29.4 22.5 85 1.8 NE 4 7 2 4 - - 0.0
14/07:00pm 25.4 29.1 22.3 83 2.1 NE 6 11 3 6 - - 0.0
14/06:30pm 25.9 29.3 22.0 79 2.6 NE 7 13 4 7 - - 0.0
14/06:00pm 26.6 30.0 22.0 76 3.1 NNE 7 20 4 11 - - 0.0
14/05:30pm 27.0 29.6 22.0 74 3.4 NE 11 20 6 11 - - 0.0
14/05:00pm 27.6 29.5 22.1 72 3.7 NE 15 24 8 13 - - 0.0
14/04:30pm 28.3 30.1 21.8 68 4.4 NE 15 30 8 16 - - 0.0
14/04:00pm 28.7 29.9 21.5 65 4.8 NE 17 28 9 15 - - 0.0
14/03:30pm 28.9 29.7 21.4 64 5.0 NE 19 32 10 17 - - 0.0
14/03:00pm 29.8 30.9 22.0 63 5.3 NE 19 32 10 17 - - 0.0
14/02:30pm 29.6 30.8 21.5 61 5.4 NE 17 28 9 15 - - 0.0
14/02:00pm 29.5 30.7 21.4 61 5.4 NE 17 26 9 14 - - 0.0
14/01:30pm 29.0 30.1 21.2 62 5.2 NE 17 28 9 15 - - 0.0
14/01:00pm 28.9 30.1 21.4 64 5.0 NE 17 28 9 15 - - 0.0
14/12:30pm 29.3 30.4 21.3 62 5.4 NE 17 24 9 13 - - 0.0
14/12:00pm 29.6 31.1 21.3 61 5.6 NE 15 28 8 15 - - 0.0
14/11:30am 28.7 30.2 21.2 64 5.0 ENE 15 22 8 12 - - 0.0
14/11:00am 29.3 31.9 22.0 64 4.9 ENE 11 20 6 11 - - 0.0
14/10:30am 29.0 31.4 21.5 64 5.0 ENE 11 15 6 8 - - 0.0
14/10:00am 28.8 31.6 21.6 65 4.8 N 9 17 5 9 - - 0.0
14/09:30am 27.3 31.1 21.6 71 3.8 N 4 9 2 5 - - 0.0
14/09:00am 27.2 31.0 22.4 75 3.2 N 6 11 3 6 - - 57.0
14/08:30am 25.9 29.1 21.6 77 2.9 NNW 7 11 4 6 - - 57.0
14/08:00am 24.6 27.7 21.1 81 2.3 NNW 6 9 3 5 - - 57.0
14/07:30am 23.4 27.1 20.7 85 1.8 E 2 6 1 3 - - 57.0
14/07:00am 22.7 26.3 20.6 88 1.4 ESE 2 4 1 2 - - 57.0
14/06:30am 21.3 24.8 20.3 94 0.6 SE 2 4 1 2 - - 57.0
14/06:00am 21.0 24.9 20.3 96 0.5 CALM 0 6 0 3 - - 57.0
14/05:30am 20.8 24.6 20.1 96 0.4 CALM 0 0 0 0 - - 57.0
14/05:00am 20.6 24.4 20.1 97 0.3 CALM 0 2 0 1 - - 57.0
14/04:30am 20.1 23.6 19.6 97 0.3 CALM 0 4 0 2 - - 57.0
14/04:00am 20.0 23.5 19.5 97 0.3 CALM 0 0 0 0 - - 57.0
14/03:30am 19.3 22.4 18.6 96 0.4 CALM 0 0 0 0 - - 57.0
14/03:00am 19.6 22.0 18.9 96 0.4 SSE 4 6 2 3 - - 57.0
14/02:30am 19.5 22.3 18.8 96 0.4 SSE 2 6 1 3 - - 57.0
14/02:00am 19.4 22.1 18.7 96 0.4 SE 2 6 1 3 - - 57.0
14/01:30am 19.5 21.5 18.8 96 0.4 SSE 6 7 3 4 - - 57.0
14/01:00am 19.4 22.1 18.7 96 0.4 SE 2 4 1 2 - - 57.0
14/12:30am 19.3 21.6 18.6 96 0.4 ESE 4 4 2 2 - - 57.0
14/12:00am 19.7 23.0 19.0 96 0.4 CALM 0 0 0 0 - - 57.0
 
Date/Time
EST
Temp
°C
App
Temp
°C
Dew
Point
°C
Rel
Hum
%
Delta-T
°C
Wind Press
QNH
hPa
Press
MSL
hPa
Rain since
9am
mm
Dir  Spd
km/h
Gust
km/h
Spd
kts
Gust
kts
13/11:30pm 19.2 21.0 18.4 95 0.5 WNW 6 6 3 3 - - 57.0
13/11:00pm 19.8 22.7 19.0 95 0.5 W 2 6 1 3 - - 57.0
13/10:30pm 20.3 23.8 19.5 95 0.5 CALM 0 0 0 0 - - 57.0
13/10:00pm 20.2 23.6 19.4 95 0.5 CALM 0 0 0 0 - - 57.0
13/09:30pm 20.2 23.2 19.2 94 0.6 NNW 2 4 1 2 - - 57.0
13/09:00pm 20.5 22.8 19.5 94 0.6 NW 6 9 3 5 - - 57.0
13/08:30pm 21.1 24.0 19.9 93 0.8 NNW 4 7 2 4 - - 57.0
13/08:00pm 21.6 24.7 20.2 92 0.9 WSW 4 9 2 5 - - 57.0
13/07:30pm 21.4 24.0 20.0 92 0.9 SW 6 7 3 4 - - 57.0
13/07:00pm 21.7 24.7 20.0 90 1.1 S 4 6 2 3 - - 57.0
13/06:30pm 21.9 24.9 20.0 89 1.2 WSW 4 6 2 3 - - 57.0
13/06:00pm 22.1 24.8 20.2 89 1.2 WNW 6 7 3 4 - - 57.0
13/05:30pm 22.3 25.1 20.4 89 1.2 WSW 6 7 3 4 - - 57.0
13/05:00pm 21.7 24.9 20.5 93 0.8 N 4 7 2 4 - - 57.0
13/04:30pm 21.0 23.4 20.0 94 0.6 NNE 7 15 4 8 - - 57.0
13/04:00pm 20.8 22.1 20.1 96 0.4 NNE 13 26 7 14 - - 57.0
13/03:30pm 20.2 20.8 19.5 96 0.4 ESE 15 33 8 18 - - 52.0
13/03:06pm 22.2 20.6 20.8 92 0.9 SE 30 59 16 32 - - 16.0
13/03:00pm 23.2 23.9 21.6 91 1.1 ESE 20 37 11 20 - - 6.8
13/02:30pm 25.1 24.7 21.0 78 2.7 NE 24 37 13 20 - - 0.2
13/02:00pm 25.6 26.2 21.1 76 3.0 NE 19 39 10 21 - - 0.2
13/01:30pm 28.2 28.0 20.5 63 5.1 NE 22 37 12 20 - - 0.0
13/01:00pm 29.6 29.4 20.5 58 6.0 ENE 22 35 12 19 - - 0.0
13/12:30pm 28.9 28.9 19.8 58 6.0 NE 19 33 10 18 - - 0.0
13/12:00pm 28.3 28.3 20.1 61 5.4 NE 20 33 11 18 - - 0.0
13/11:30am 28.0 27.9 20.0 61 5.2 NE 20 35 11 19 - - 0.0
13/11:00am 28.4 29.2 20.7 63 5.1 NE 17 30 9 16 - - 0.0
13/10:30am 28.4 28.9 20.9 64 5.0 NE 19 28 10 15 - - 0.0
13/10:00am 28.7 29.9 21.5 65 4.8 NE 17 28 9 15 - - 0.0
13/09:30am 28.2 30.3 21.0 65 4.8 NE 11 20 6 11 - - 0.0
13/09:00am 29.1 31.3 20.3 59 5.8 NNE 9 24 5 13 - - 0.0
13/08:30am 28.4 30.5 20.2 61 5.4 N 9 15 5 8 - - 0.0
13/08:00am 27.3 29.6 20.6 67 4.4 NNW 9 19 5 10 - - 0.0
13/07:30am 25.6 28.4 20.8 75 3.2 NW 7 13 4 7 - - 0.0
13/07:00am 25.4 29.2 20.9 76 3.0 N 2 6 1 3 - - 0.0
13/06:30am 23.9 28.5 21.8 88 1.4 CALM 0 2 0 1 - - 0.0
13/06:00am 22.7 27.1 21.3 92 0.9 CALM 0 2 0 1 - - 0.0
13/05:30am 21.7 25.6 20.3 92 0.9 CALM 0 0 0 0 - - 0.0
13/05:00am 21.9 26.2 21.1 95 0.5 CALM 0 0 0 0 - - 0.0
13/04:30am 21.4 25.3 20.4 94 0.6 CALM 0 0 0 0 - - 0.0
13/04:00am 21.0 24.6 19.7 92 0.8 CALM 0 0 0 0 - - 0.0
13/03:30am 21.3 24.8 19.6 90 1.1 CALM 0 0 0 0 - - 0.0
13/03:00am 22.3 26.3 20.6 90 1.1 CALM 0 0 0 0 - - 0.0
13/02:30am 22.3 25.9 20.6 90 1.1 N 2 4 1 2 - - 0.0
13/02:00am 22.4 25.9 20.3 88 1.4 N 2 6 1 3 - - 0.0
13/01:30am 22.9 26.9 20.6 87 1.5 CALM 0 0 0 0 - - 0.0
13/01:00am 23.1 27.1 20.6 86 1.6 CALM 0 2 0 1 - - 0.0
13/12:30am 23.4 27.4 20.5 84 1.9 CALM 0 0 0 0 - - 0.0
13/12:00am 23.8 27.7 20.3 81 2.3 CALM 0 4 0 2 - - 0.0
 
Date/Time
EST
Temp
°C
App
Temp
°C
Dew
Point
°C
Rel
Hum
%
Delta-T
°C
Wind Press
QNH
hPa
Press
MSL
hPa
Rain since
9am
mm
Dir  Spd
km/h
Gust
km/h
Spd
kts
Gust
kts
12/11:30pm 24.2 27.4 20.5 80 2.4 NNE 4 7 2 4 - - 0.0
12/11:00pm 23.9 26.9 20.0 79 2.5 N 4 6 2 3 - - 0.0
12/10:30pm 24.5 27.6 20.2 77 2.8 NNE 4 7 2 4 - - 0.0
12/10:00pm 24.9 28.1 20.6 77 2.8 NNE 4 9 2 5 - - 0.0
12/09:30pm 25.2 28.7 21.1 78 2.7 NNE 4 9 2 5 - - 0.0
12/09:00pm 25.1 28.0 20.6 76 2.9 NNW 6 7 3 4 - - 0.0
12/08:30pm 25.2 27.6 20.0 73 3.4 N 7 11 4 6 - - 0.0
12/08:00pm 25.8 27.5 19.4 67 4.1 N 9 17 5 9 - - 0.0
12/07:30pm 26.0 28.0 19.2 66 4.4 NNW 7 19 4 10 - - 0.0
12/07:00pm 26.5 28.4 18.9 63 4.9 NNE 7 19 4 10 - - 0.0
12/06:30pm 26.6 28.4 18.2 60 5.3 N 6 13 3 7 - - 0.0
12/06:00pm 27.1 28.5 17.8 56 5.9 NNE 7 17 4 9 - - 0.0

Latest Capital City Observations: Canberra | Sydney | Melbourne | Brisbane | Adelaide | Perth | Hobart | Darwin

Other formats

Comma delimited format used in spreadsheet applications
http://www.bom.gov.au/fwo/IDQ60901/IDQ60901.94420.axf

JavaScript Object Notation format (JSON) in row-major order
http://www.bom.gov.au/fwo/IDQ60901/IDQ60901.94420.json

Data quality

Most of these data are generated automatically and are frequently updated. Quality checks on data are not normally performed. It is possible for incorrect values to appear. Refer to information at About Latest Weather Observations and please check the disclaimer before using these data.